sensor_id;sensor_type;location;lat;lon;timestamp;P1;durP1;ratioP1;P2;durP2;ratioP2
11931;SDS011;6025;51.368;6.788;2022-12-29T00:04:01;1.55;;;0.98;;
11931;SDS011;6025;51.368;6.788;2022-12-29T00:08:53;0.90;;;0.75;;
11931;SDS011;6025;51.368;6.788;2022-12-29T00:13:46;1.30;;;0.93;;
11931;SDS011;6025;51.368;6.788;2022-12-29T00:18:55;0.80;;;0.70;;
11931;SDS011;6025;51.368;6.788;2022-12-29T00:23:47;1.45;;;0.82;;
11931;SDS011;6025;51.368;6.788;2022-12-29T00:28:57;3.22;;;0.68;;
11931;SDS011;6025;51.368;6.788;2022-12-29T00:34:07;0.70;;;0.70;;
11931;SDS011;6025;51.368;6.788;2022-12-29T00:39:18;0.70;;;0.70;;
11931;SDS011;6025;51.368;6.788;2022-12-29T00:44:28;1.25;;;0.50;;
11931;SDS011;6025;51.368;6.788;2022-12-29T00:49:20;1.00;;;0.70;;
11931;SDS011;6025;51.368;6.788;2022-12-29T00:54:32;0.70;;;0.63;;
11931;SDS011;6025;51.368;6.788;2022-12-29T00:59:24;1.17;;;0.60;;
11931;SDS011;6025;51.368;6.788;2022-12-29T01:04:17;1.08;;;0.80;;
11931;SDS011;6025;51.368;6.788;2022-12-29T01:09:09;0.50;;;0.50;;
11931;SDS011;6025;51.368;6.788;2022-12-29T01:14:19;0.40;;;0.30;;
11931;SDS011;6025;51.368;6.788;2022-12-29T01:19:11;0.63;;;0.50;;
11931;SDS011;6025;51.368;6.788;2022-12-29T01:24:04;0.45;;;0.30;;
11931;SDS011;6025;51.368;6.788;2022-12-29T01:28:56;0.40;;;0.40;;
11931;SDS011;6025;51.368;6.788;2022-12-29T01:33:47;0.52;;;0.40;;
11931;SDS011;6025;51.368;6.788;2022-12-29T01:38:40;0.63;;;0.40;;
11931;SDS011;6025;51.368;6.788;2022-12-29T01:43:40;0.30;;;0.30;;
11931;SDS011;6025;51.368;6.788;2022-12-29T01:48:33;0.47;;;0.40;;
11931;SDS011;6025;51.368;6.788;2022-12-29T01:53:25;0.30;;;0.30;;
11931;SDS011;6025;51.368;6.788;2022-12-29T01:58:19;0.40;;;0.40;;
11931;SDS011;6025;51.368;6.788;2022-12-29T02:03:13;0.43;;;0.38;;
11931;SDS011;6025;51.368;6.788;2022-12-29T02:08:05;0.95;;;0.35;;
11931;SDS011;6025;51.368;6.788;2022-12-29T02:12:59;0.90;;;0.55;;
11931;SDS011;6025;51.368;6.788;2022-12-29T02:17:53;1.20;;;0.47;;
11931;SDS011;6025;51.368;6.788;2022-12-29T02:22:56;0.60;;;0.40;;
11931;SDS011;6025;51.368;6.788;2022-12-29T02:28:06;1.55;;;0.50;;
11931;SDS011;6025;51.368;6.788;2022-12-29T02:33:08;2.58;;;0.70;;
11931;SDS011;6025;51.368;6.788;2022-12-29T02:38:08;0.75;;;0.50;;
11931;SDS011;6025;51.368;6.788;2022-12-29T02:43:05;1.27;;;0.73;;
11931;SDS011;6025;51.368;6.788;2022-12-29T02:48:04;1.00;;;0.60;;
11931;SDS011;6025;51.368;6.788;2022-12-29T02:53:01;2.75;;;0.80;;
11931;SDS011;6025;51.368;6.788;2022-12-29T03:03:13;0.98;;;0.68;;
11931;SDS011;6025;51.368;6.788;2022-12-29T03:08:11;1.42;;;0.70;;
11931;SDS011;6025;51.368;6.788;2022-12-29T03:13:08;1.83;;;0.75;;
11931;SDS011;6025;51.368;6.788;2022-12-29T03:18:24;2.17;;;0.80;;
11931;SDS011;6025;51.368;6.788;2022-12-29T03:23:19;2.15;;;0.65;;
11931;SDS011;6025;51.368;6.788;2022-12-29T03:28:12;3.40;;;0.75;;
11931;SDS011;6025;51.368;6.788;2022-12-29T03:33:07;1.15;;;0.70;;
11931;SDS011;6025;51.368;6.788;2022-12-29T03:38:05;0.95;;;0.70;;
11931;SDS011;6025;51.368;6.788;2022-12-29T03:43:01;1.60;;;0.70;;
11931;SDS011;6025;51.368;6.788;2022-12-29T03:47:53;0.95;;;0.50;;
11931;SDS011;6025;51.368;6.788;2022-12-29T03:52:45;1.25;;;0.50;;
11931;SDS011;6025;51.368;6.788;2022-12-29T03:57:37;0.75;;;0.40;;
11931;SDS011;6025;51.368;6.788;2022-12-29T04:02:29;1.58;;;0.70;;
11931;SDS011;6025;51.368;6.788;2022-12-29T04:07:21;0.47;;;0.43;;
11931;SDS011;6025;51.368;6.788;2022-12-29T04:12:12;1.08;;;0.52;;
11931;SDS011;6025;51.368;6.788;2022-12-29T04:17:05;1.40;;;0.60;;
11931;SDS011;6025;51.368;6.788;2022-12-29T04:21:57;0.43;;;0.40;;
11931;SDS011;6025;51.368;6.788;2022-12-29T04:26:49;0.77;;;0.57;;
11931;SDS011;6025;51.368;6.788;2022-12-29T04:31:40;0.75;;;0.50;;
11931;SDS011;6025;51.368;6.788;2022-12-29T04:36:33;2.45;;;0.60;;
11931;SDS011;6025;51.368;6.788;2022-12-29T04:41:25;2.35;;;0.60;;
11931;SDS011;6025;51.368;6.788;2022-12-29T04:46:16;1.33;;;0.70;;
11931;SDS011;6025;51.368;6.788;2022-12-29T04:51:08;1.83;;;0.60;;
11931;SDS011;6025;51.368;6.788;2022-12-29T04:56:01;2.67;;;0.63;;
11931;SDS011;6025;51.368;6.788;2022-12-29T05:00:52;1.33;;;0.60;;
11931;SDS011;6025;51.368;6.788;2022-12-29T05:05:44;1.10;;;0.60;;
11931;SDS011;6025;51.368;6.788;2022-12-29T05:10:35;1.85;;;0.65;;
11931;SDS011;6025;51.368;6.788;2022-12-29T05:15:28;2.05;;;0.77;;
11931;SDS011;6025;51.368;6.788;2022-12-29T05:20:20;2.75;;;0.80;;
11931;SDS011;6025;51.368;6.788;2022-12-29T05:25:11;1.30;;;0.65;;
11931;SDS011;6025;51.368;6.788;2022-12-29T05:30:03;0.82;;;0.50;;
11931;SDS011;6025;51.368;6.788;2022-12-29T05:34:57;1.17;;;0.68;;
11931;SDS011;6025;51.368;6.788;2022-12-29T05:39:48;1.75;;;0.63;;
11931;SDS011;6025;51.368;6.788;2022-12-29T05:44:40;2.92;;;0.80;;
11931;SDS011;6025;51.368;6.788;2022-12-29T05:49:31;1.20;;;0.68;;
11931;SDS011;6025;51.368;6.788;2022-12-29T05:54:24;1.05;;;0.80;;
11931;SDS011;6025;51.368;6.788;2022-12-29T05:59:16;1.50;;;0.75;;
11931;SDS011;6025;51.368;6.788;2022-12-29T06:04:07;2.65;;;0.75;;
11931;SDS011;6025;51.368;6.788;2022-12-29T06:08:59;2.13;;;0.70;;
11931;SDS011;6025;51.368;6.788;2022-12-29T06:13:52;1.48;;;0.70;;
11931;SDS011;6025;51.368;6.788;2022-12-29T06:18:43;1.15;;;0.60;;
11931;SDS011;6025;51.368;6.788;2022-12-29T06:23:35;1.48;;;0.65;;
11931;SDS011;6025;51.368;6.788;2022-12-29T06:28:27;2.42;;;0.70;;
11931;SDS011;6025;51.368;6.788;2022-12-29T06:33:20;1.92;;;0.90;;
11931;SDS011;6025;51.368;6.788;2022-12-29T06:38:12;1.10;;;0.70;;
11931;SDS011;6025;51.368;6.788;2022-12-29T06:43:03;3.10;;;1.00;;
11931;SDS011;6025;51.368;6.788;2022-12-29T06:47:55;2.55;;;0.80;;
11931;SDS011;6025;51.368;6.788;2022-12-29T06:52:48;3.88;;;0.90;;
11931;SDS011;6025;51.368;6.788;2022-12-29T06:57:40;3.20;;;0.73;;
11931;SDS011;6025;51.368;6.788;2022-12-29T07:02:31;2.17;;;0.70;;
11931;SDS011;6025;51.368;6.788;2022-12-29T07:07:23;2.72;;;0.90;;
11931;SDS011;6025;51.368;6.788;2022-12-29T07:12:16;3.20;;;0.80;;
11931;SDS011;6025;51.368;6.788;2022-12-29T07:17:07;3.25;;;0.70;;
11931;SDS011;6025;51.368;6.788;2022-12-29T07:21:59;1.98;;;0.90;;
11931;SDS011;6025;51.368;6.788;2022-12-29T07:26:51;1.35;;;0.75;;
11931;SDS011;6025;51.368;6.788;2022-12-29T07:31:44;3.40;;;0.80;;
11931;SDS011;6025;51.368;6.788;2022-12-29T07:36:35;3.00;;;1.00;;
11931;SDS011;6025;51.368;6.788;2022-12-29T07:41:27;5.00;;;1.10;;
11931;SDS011;6025;51.368;6.788;2022-12-29T07:46:18;3.42;;;0.82;;
11931;SDS011;6025;51.368;6.788;2022-12-29T07:51:11;3.28;;;0.80;;
11931;SDS011;6025;51.368;6.788;2022-12-29T07:56:03;2.63;;;0.77;;
11931;SDS011;6025;51.368;6.788;2022-12-29T08:00:55;4.68;;;0.70;;
11931;SDS011;6025;51.368;6.788;2022-12-29T08:05:47;4.47;;;1.02;;
11931;SDS011;6025;51.368;6.788;2022-12-29T08:10:40;3.17;;;0.88;;
11931;SDS011;6025;51.368;6.788;2022-12-29T08:15:32;2.63;;;0.80;;
11931;SDS011;6025;51.368;6.788;2022-12-29T08:20:23;3.95;;;0.90;;
11931;SDS011;6025;51.368;6.788;2022-12-29T08:25:15;4.72;;;0.90;;
11931;SDS011;6025;51.368;6.788;2022-12-29T08:30:09;3.42;;;1.17;;
11931;SDS011;6025;51.368;6.788;2022-12-29T08:35:01;4.45;;;1.35;;
11931;SDS011;6025;51.368;6.788;2022-12-29T08:39:53;3.45;;;0.90;;
11931;SDS011;6025;51.368;6.788;2022-12-29T08:44:44;6.20;;;1.10;;
11931;SDS011;6025;51.368;6.788;2022-12-29T08:49:37;2.63;;;0.98;;
11931;SDS011;6025;51.368;6.788;2022-12-29T08:54:29;2.33;;;1.20;;
11931;SDS011;6025;51.368;6.788;2022-12-29T08:59:20;4.72;;;1.55;;
11931;SDS011;6025;51.368;6.788;2022-12-29T09:04:12;1.92;;;1.00;;
11931;SDS011;6025;51.368;6.788;2022-12-29T09:09:04;3.70;;;1.20;;
11931;SDS011;6025;51.368;6.788;2022-12-29T09:13:56;4.45;;;1.30;;
11931;SDS011;6025;51.368;6.788;2022-12-29T09:18:48;3.53;;;1.17;;
11931;SDS011;6025;51.368;6.788;2022-12-29T09:23:39;3.05;;;1.27;;
11931;SDS011;6025;51.368;6.788;2022-12-29T09:28:32;3.28;;;1.20;;
11931;SDS011;6025;51.368;6.788;2022-12-29T09:33:24;4.43;;;1.10;;
11931;SDS011;6025;51.368;6.788;2022-12-29T09:38:16;7.43;;;1.25;;
11931;SDS011;6025;51.368;6.788;2022-12-29T09:43:17;3.55;;;1.00;;
11931;SDS011;6025;51.368;6.788;2022-12-29T09:48:37;4.03;;;1.00;;
11931;SDS011;6025;51.368;6.788;2022-12-29T09:53:32;4.03;;;1.05;;
11931;SDS011;6025;51.368;6.788;2022-12-29T09:58:28;3.40;;;0.93;;
11931;SDS011;6025;51.368;6.788;2022-12-29T10:03:24;5.40;;;1.33;;
11931;SDS011;6025;51.368;6.788;2022-12-29T10:08:24;5.35;;;1.08;;
11931;SDS011;6025;51.368;6.788;2022-12-29T10:13:26;4.30;;;1.13;;
11931;SDS011;6025;51.368;6.788;2022-12-29T10:18:24;5.45;;;1.35;;
11931;SDS011;6025;51.368;6.788;2022-12-29T10:23:42;4.63;;;1.33;;
11931;SDS011;6025;51.368;6.788;2022-12-29T10:28:37;5.90;;;1.42;;
11931;SDS011;6025;51.368;6.788;2022-12-29T10:33:32;2.50;;;1.20;;
11931;SDS011;6025;51.368;6.788;2022-12-29T10:38:27;5.38;;;1.42;;
11931;SDS011;6025;51.368;6.788;2022-12-29T10:43:26;5.60;;;1.13;;
11931;SDS011;6025;51.368;6.788;2022-12-29T10:48:19;7.10;;;1.63;;
11931;SDS011;6025;51.368;6.788;2022-12-29T10:53:15;5.47;;;1.15;;
11931;SDS011;6025;51.368;6.788;2022-12-29T10:58:11;5.47;;;1.35;;
11931;SDS011;6025;51.368;6.788;2022-12-29T11:03:26;5.60;;;1.20;;
11931;SDS011;6025;51.368;6.788;2022-12-29T11:08:37;4.13;;;1.17;;
11931;SDS011;6025;51.368;6.788;2022-12-29T11:13:32;7.28;;;1.40;;
11931;SDS011;6025;51.368;6.788;2022-12-29T11:18:28;4.55;;;1.00;;
11931;SDS011;6025;51.368;6.788;2022-12-29T11:23:25;5.15;;;1.13;;
11931;SDS011;6025;51.368;6.788;2022-12-29T11:28:21;5.72;;;1.30;;
11931;SDS011;6025;51.368;6.788;2022-12-29T11:33:16;5.50;;;1.27;;
11931;SDS011;6025;51.368;6.788;2022-12-29T11:38:16;3.97;;;1.20;;
11931;SDS011;6025;51.368;6.788;2022-12-29T11:43:11;5.18;;;1.13;;
11931;SDS011;6025;51.368;6.788;2022-12-29T11:48:12;3.97;;;1.45;;
11931;SDS011;6025;51.368;6.788;2022-12-29T11:53:13;4.82;;;1.50;;
11931;SDS011;6025;51.368;6.788;2022-12-29T11:58:11;8.98;;;1.50;;
11931;SDS011;6025;51.368;6.788;2022-12-29T12:03:07;3.28;;;1.13;;
11931;SDS011;6025;51.368;6.788;2022-12-29T12:08:05;4.75;;;1.40;;
11931;SDS011;6025;51.368;6.788;2022-12-29T12:13:05;6.50;;;1.50;;
11931;SDS011;6025;51.368;6.788;2022-12-29T12:18:00;4.03;;;1.30;;
11931;SDS011;6025;51.368;6.788;2022-12-29T12:22:58;5.80;;;1.65;;
11931;SDS011;6025;51.368;6.788;2022-12-29T12:27:59;6.32;;;1.30;;
11931;SDS011;6025;51.368;6.788;2022-12-29T12:32:56;5.47;;;1.23;;
11931;SDS011;6025;51.368;6.788;2022-12-29T12:37:57;4.15;;;1.20;;
11931;SDS011;6025;51.368;6.788;2022-12-29T12:42:59;6.25;;;1.55;;
11931;SDS011;6025;51.368;6.788;2022-12-29T12:48:07;3.38;;;1.23;;
11931;SDS011;6025;51.368;6.788;2022-12-29T12:53:11;4.65;;;1.30;;
11931;SDS011;6025;51.368;6.788;2022-12-29T12:58:11;6.10;;;1.55;;
11931;SDS011;6025;51.368;6.788;2022-12-29T13:03:10;4.45;;;1.35;;
11931;SDS011;6025;51.368;6.788;2022-12-29T13:08:10;6.13;;;1.40;;
11931;SDS011;6025;51.368;6.788;2022-12-29T13:13:51;6.90;;;1.65;;
11931;SDS011;6025;51.368;6.788;2022-12-29T13:18:52;4.95;;;1.17;;
11931;SDS011;6025;51.368;6.788;2022-12-29T13:23:48;5.55;;;1.50;;
11931;SDS011;6025;51.368;6.788;2022-12-29T13:28:49;5.28;;;1.25;;
11931;SDS011;6025;51.368;6.788;2022-12-29T13:33:46;4.45;;;1.48;;
11931;SDS011;6025;51.368;6.788;2022-12-29T13:38:45;6.75;;;1.67;;
11931;SDS011;6025;51.368;6.788;2022-12-29T13:43:38;5.85;;;1.30;;
11931;SDS011;6025;51.368;6.788;2022-12-29T13:48:35;3.92;;;1.42;;
11931;SDS011;6025;51.368;6.788;2022-12-29T13:53:33;6.13;;;1.42;;
11931;SDS011;6025;51.368;6.788;2022-12-29T13:58:27;3.45;;;1.20;;
11931;SDS011;6025;51.368;6.788;2022-12-29T14:03:37;7.68;;;1.50;;
11931;SDS011;6025;51.368;6.788;2022-12-29T14:08:37;6.30;;;1.58;;
11931;SDS011;6025;51.368;6.788;2022-12-29T14:13:29;5.90;;;1.40;;
11931;SDS011;6025;51.368;6.788;2022-12-29T14:18:21;4.28;;;1.08;;
11931;SDS011;6025;51.368;6.788;2022-12-29T14:23:17;7.68;;;1.63;;
11931;SDS011;6025;51.368;6.788;2022-12-29T14:28:22;6.57;;;1.15;;
11931;SDS011;6025;51.368;6.788;2022-12-29T14:33:15;4.43;;;1.20;;
11931;SDS011;6025;51.368;6.788;2022-12-29T14:38:13;2.92;;;1.10;;
11931;SDS011;6025;51.368;6.788;2022-12-29T14:43:11;7.32;;;1.40;;
11931;SDS011;6025;51.368;6.788;2022-12-29T14:48:05;2.75;;;1.00;;
11931;SDS011;6025;51.368;6.788;2022-12-29T14:53:43;6.47;;;1.25;;
11931;SDS011;6025;51.368;6.788;2022-12-29T14:58:38;4.57;;;1.17;;
11931;SDS011;6025;51.368;6.788;2022-12-29T15:03:38;4.35;;;1.10;;
11931;SDS011;6025;51.368;6.788;2022-12-29T15:08:36;5.50;;;1.40;;
11931;SDS011;6025;51.368;6.788;2022-12-29T15:13:32;4.80;;;1.33;;
11931;SDS011;6025;51.368;6.788;2022-12-29T15:18:26;6.40;;;1.58;;
11931;SDS011;6025;51.368;6.788;2022-12-29T15:23:19;4.40;;;1.35;;
11931;SDS011;6025;51.368;6.788;2022-12-29T15:28:11;3.03;;;1.20;;
11931;SDS011;6025;51.368;6.788;2022-12-29T15:33:07;4.53;;;1.10;;
11931;SDS011;6025;51.368;6.788;2022-12-29T15:38:12;4.32;;;1.38;;
11931;SDS011;6025;51.368;6.788;2022-12-29T15:48:21;4.40;;;1.20;;
11931;SDS011;6025;51.368;6.788;2022-12-29T15:53:18;5.30;;;1.42;;
11931;SDS011;6025;51.368;6.788;2022-12-29T15:58:18;4.53;;;1.40;;
11931;SDS011;6025;51.368;6.788;2022-12-29T16:03:13;4.55;;;1.40;;
11931;SDS011;6025;51.368;6.788;2022-12-29T16:08:20;3.85;;;1.27;;
11931;SDS011;6025;51.368;6.788;2022-12-29T16:13:24;4.88;;;1.42;;
11931;SDS011;6025;51.368;6.788;2022-12-29T16:18:21;2.90;;;1.13;;
11931;SDS011;6025;51.368;6.788;2022-12-29T16:23:16;6.50;;;1.60;;
11931;SDS011;6025;51.368;6.788;2022-12-29T16:28:14;4.35;;;1.23;;
11931;SDS011;6025;51.368;6.788;2022-12-29T16:38:30;5.53;;;1.77;;
11931;SDS011;6025;51.368;6.788;2022-12-29T16:43:22;5.88;;;1.35;;
11931;SDS011;6025;51.368;6.788;2022-12-29T16:48:17;8.18;;;2.00;;
11931;SDS011;6025;51.368;6.788;2022-12-29T16:53:17;2.67;;;1.30;;
11931;SDS011;6025;51.368;6.788;2022-12-29T16:58:11;7.30;;;2.05;;
11931;SDS011;6025;51.368;6.788;2022-12-29T17:03:08;6.97;;;1.58;;
11931;SDS011;6025;51.368;6.788;2022-12-29T17:08:01;6.38;;;1.60;;
11931;SDS011;6025;51.368;6.788;2022-12-29T17:12:54;5.45;;;1.70;;
11931;SDS011;6025;51.368;6.788;2022-12-29T17:17:46;7.55;;;2.75;;
11931;SDS011;6025;51.368;6.788;2022-12-29T17:22:38;7.50;;;2.63;;
11931;SDS011;6025;51.368;6.788;2022-12-29T17:27:30;4.10;;;1.60;;
11931;SDS011;6025;51.368;6.788;2022-12-29T17:32:25;2.13;;;0.80;;
11931;SDS011;6025;51.368;6.788;2022-12-29T17:37:23;1.63;;;0.70;;
11931;SDS011;6025;51.368;6.788;2022-12-29T17:42:19;3.33;;;1.00;;
11931;SDS011;6025;51.368;6.788;2022-12-29T17:47:10;1.97;;;1.00;;
11931;SDS011;6025;51.368;6.788;2022-12-29T17:52:06;1.87;;;1.00;;
11931;SDS011;6025;51.368;6.788;2022-12-29T17:56:57;2.50;;;1.20;;
11931;SDS011;6025;51.368;6.788;2022-12-29T18:01:49;2.53;;;1.10;;
11931;SDS011;6025;51.368;6.788;2022-12-29T18:06:40;3.13;;;0.90;;
11931;SDS011;6025;51.368;6.788;2022-12-29T18:11:34;4.00;;;1.10;;
11931;SDS011;6025;51.368;6.788;2022-12-29T18:16:25;1.73;;;0.70;;
11931;SDS011;6025;51.368;6.788;2022-12-29T18:21:18;3.10;;;1.07;;
11931;SDS011;6025;51.368;6.788;2022-12-29T18:26:15;5.57;;;1.40;;
11931;SDS011;6025;51.368;6.788;2022-12-29T18:31:12;4.23;;;1.17;;
11931;SDS011;6025;51.368;6.788;2022-12-29T18:36:08;3.67;;;1.20;;
11931;SDS011;6025;51.368;6.788;2022-12-29T18:41:02;4.43;;;1.13;;
11931;SDS011;6025;51.368;6.788;2022-12-29T18:45:54;4.97;;;1.50;;
11931;SDS011;6025;51.368;6.788;2022-12-29T18:50:47;6.80;;;1.60;;
11931;SDS011;6025;51.368;6.788;2022-12-29T18:55:40;5.93;;;1.67;;
11931;SDS011;6025;51.368;6.788;2022-12-29T19:00:32;8.73;;;1.73;;
11931;SDS011;6025;51.368;6.788;2022-12-29T19:05:25;6.87;;;2.13;;
11931;SDS011;6025;51.368;6.788;2022-12-29T19:10:19;6.03;;;1.60;;
11931;SDS011;6025;51.368;6.788;2022-12-29T19:15:16;8.73;;;1.83;;
11931;SDS011;6025;51.368;6.788;2022-12-29T19:20:15;7.97;;;1.87;;
11931;SDS011;6025;51.368;6.788;2022-12-29T19:25:15;9.27;;;2.33;;
11931;SDS011;6025;51.368;6.788;2022-12-29T19:30:09;7.47;;;1.93;;
11931;SDS011;6025;51.368;6.788;2022-12-29T19:35:03;6.63;;;1.67;;
11931;SDS011;6025;51.368;6.788;2022-12-29T19:39:55;9.17;;;1.90;;
11931;SDS011;6025;51.368;6.788;2022-12-29T19:44:46;10.43;;;2.20;;
11931;SDS011;6025;51.368;6.788;2022-12-29T19:49:39;8.27;;;1.80;;
11931;SDS011;6025;51.368;6.788;2022-12-29T19:54:32;8.63;;;1.83;;
11931;SDS011;6025;51.368;6.788;2022-12-29T19:59:24;10.23;;;1.90;;
11931;SDS011;6025;51.368;6.788;2022-12-29T20:04:15;6.20;;;1.67;;
11931;SDS011;6025;51.368;6.788;2022-12-29T20:09:08;6.70;;;1.57;;
11931;SDS011;6025;51.368;6.788;2022-12-29T20:14:00;8.97;;;1.80;;
11931;SDS011;6025;51.368;6.788;2022-12-29T20:18:52;7.43;;;2.30;;
11931;SDS011;6025;51.368;6.788;2022-12-29T20:23:44;6.33;;;1.53;;
11931;SDS011;6025;51.368;6.788;2022-12-29T20:28:38;6.70;;;1.60;;
11931;SDS011;6025;51.368;6.788;2022-12-29T20:33:30;6.87;;;1.90;;
11931;SDS011;6025;51.368;6.788;2022-12-29T20:38:22;7.40;;;1.90;;
11931;SDS011;6025;51.368;6.788;2022-12-29T20:43:14;5.00;;;1.53;;
11931;SDS011;6025;51.368;6.788;2022-12-29T20:48:08;4.53;;;1.57;;
11931;SDS011;6025;51.368;6.788;2022-12-29T20:52:59;4.43;;;1.43;;
11931;SDS011;6025;51.368;6.788;2022-12-29T20:57:51;4.20;;;1.60;;
11931;SDS011;6025;51.368;6.788;2022-12-29T21:02:42;5.90;;;1.57;;
11931;SDS011;6025;51.368;6.788;2022-12-29T21:07:35;9.10;;;2.10;;
11931;SDS011;6025;51.368;6.788;2022-12-29T21:12:27;8.30;;;1.73;;
11931;SDS011;6025;51.368;6.788;2022-12-29T21:17:18;3.67;;;1.50;;
11931;SDS011;6025;51.368;6.788;2022-12-29T21:22:10;10.33;;;2.00;;
11931;SDS011;6025;51.368;6.788;2022-12-29T21:27:03;8.23;;;1.90;;
11931;SDS011;6025;51.368;6.788;2022-12-29T21:31:55;6.97;;;1.80;;
11931;SDS011;6025;51.368;6.788;2022-12-29T21:36:48;11.10;;;2.30;;
11931;SDS011;6025;51.368;6.788;2022-12-29T21:41:39;10.57;;;2.30;;
11931;SDS011;6025;51.368;6.788;2022-12-29T21:46:32;6.60;;;1.50;;
11931;SDS011;6025;51.368;6.788;2022-12-29T21:51:25;8.73;;;1.80;;
11931;SDS011;6025;51.368;6.788;2022-12-29T21:56:34;8.23;;;2.00;;
11931;SDS011;6025;51.368;6.788;2022-12-29T22:01:26;10.53;;;2.00;;
11931;SDS011;6025;51.368;6.788;2022-12-29T22:06:37;8.80;;;2.00;;
11931;SDS011;6025;51.368;6.788;2022-12-29T22:11:46;7.80;;;1.80;;
11931;SDS011;6025;51.368;6.788;2022-12-29T22:16:55;9.20;;;1.80;;
11931;SDS011;6025;51.368;6.788;2022-12-29T22:21:48;9.77;;;2.53;;
11931;SDS011;6025;51.368;6.788;2022-12-29T22:26:40;10.67;;;2.37;;
11931;SDS011;6025;51.368;6.788;2022-12-29T22:31:31;9.07;;;2.03;;
11931;SDS011;6025;51.368;6.788;2022-12-29T22:36:23;7.77;;;1.97;;
11931;SDS011;6025;51.368;6.788;2022-12-29T22:41:16;5.00;;;1.77;;
11931;SDS011;6025;51.368;6.788;2022-12-29T22:46:08;9.20;;;2.20;;
11931;SDS011;6025;51.368;6.788;2022-12-29T22:50:59;8.37;;;1.80;;
11931;SDS011;6025;51.368;6.788;2022-12-29T22:55:59;8.20;;;1.80;;
11931;SDS011;6025;51.368;6.788;2022-12-29T23:00:53;11.00;;;2.40;;
11931;SDS011;6025;51.368;6.788;2022-12-29T23:05:53;5.50;;;1.90;;
11931;SDS011;6025;51.368;6.788;2022-12-29T23:10:45;9.53;;;2.07;;
11931;SDS011;6025;51.368;6.788;2022-12-29T23:15:37;10.00;;;2.30;;
11931;SDS011;6025;51.368;6.788;2022-12-29T23:20:30;9.67;;;2.33;;
11931;SDS011;6025;51.368;6.788;2022-12-29T23:25:23;8.33;;;1.90;;
11931;SDS011;6025;51.368;6.788;2022-12-29T23:30:15;8.20;;;1.80;;
11931;SDS011;6025;51.368;6.788;2022-12-29T23:35:07;8.83;;;2.30;;
11931;SDS011;6025;51.368;6.788;2022-12-29T23:40:00;7.87;;;1.87;;
11931;SDS011;6025;51.368;6.788;2022-12-29T23:44:52;5.33;;;1.90;;
11931;SDS011;6025;51.368;6.788;2022-12-29T23:49:43;10.83;;;2.10;;
11931;SDS011;6025;51.368;6.788;2022-12-29T23:54:35;8.97;;;2.30;;
11931;SDS011;6025;51.368;6.788;2022-12-29T23:59:28;9.90;;;1.90;;
